Time;durP1;ratioP1;P1;durP2;ratioP2;P2;SDS_P1;SDS_P2;PMS_P1;PMS_P2;Temp;Humidity;BMP_temperature;BMP_pressure;BME280_temperature;BME280_humidity;BME280_pressure;Samples;Min_cycle;Max_cycle;Signal;HPM_P1;HPM_P2
2023/12/18 00:02:08;;;;;;;;;;;12.50;50.60;;;12.68;53.40;102317.41;5052366;28;19976;-37
2023/12/18 00:04:36;;;;;;;;;;;12.50;50.60;;;12.65;54.24;102311.91;5052389;28;19948;-37
2023/12/18 00:07:04;;;;;;;;;;;12.50;50.60;;;12.67;53.51;102318.09;5051407;28;19987;-37
2023/12/18 00:09:32;;;;;;;;;;;12.50;50.60;;;12.68;53.38;102319.94;5052307;28;20019;-40
2023/12/18 00:12:00;;;;;;;;;;;12.50;50.60;;;12.64;53.26;102316.06;5052289;28;19924;-37
2023/12/18 00:14:28;;;;;;;;;;;12.50;50.60;;;12.64;53.36;102311.03;5044414;28;19925;-37
2023/12/18 00:16:57;;;;;;;;;;;12.50;50.60;;;12.62;54.22;102304.84;5051548;28;19924;-36
2023/12/18 00:19:25;;;;;;;;;;;12.50;50.60;;;12.61;53.11;102308.03;5051972;28;19931;-39
2023/12/18 00:21:53;;;;;;;;;;;12.50;50.60;;;12.60;54.09;102308.72;5052021;28;20103;-37
2023/12/18 00:24:21;;;;;;;;;;;12.50;50.70;;;12.59;54.12;102309.41;5051918;28;20455;-37
2023/12/18 00:26:49;;;;;;;;;;;12.40;50.70;;;12.57;53.74;102310.81;5051423;28;19925;-38
2023/12/18 00:29:17;;;;;;;;;;;12.40;50.70;;;12.56;54.57;102308.97;5052077;28;19925;-36
2023/12/18 00:31:45;;;;;;;;;;;12.40;50.80;;;12.55;53.88;102307.13;5046189;28;19925;-37
2023/12/18 00:34:14;;;;;;;;;;;12.40;50.80;;;12.55;54.27;102316.28;5050353;28;19991;-37
2023/12/18 00:36:43;;;;;;;;;;;12.40;50.80;;;12.54;53.86;102322.91;5051835;28;20008;-37
2023/12/18 00:39:15;;;;;;;;;;;12.40;50.90;;;12.53;54.35;102326.09;5052616;28;19925;-37
2023/12/18 00:41:43;;;;;;;;;;;12.40;50.90;;;12.52;54.18;102331.81;5052357;28;19970;-37
2023/12/18 00:44:11;;;;;;;;;;;12.40;50.90;;;12.52;54.26;102331.81;5053218;28;19925;-36
2023/12/18 00:46:39;;;;;;;;;;;12.40;50.90;;;12.52;53.60;102331.81;5054269;28;20411;-37
2023/12/18 00:49:07;;;;;;;;;;;12.30;50.80;;;12.52;53.55;102331.81;5055061;28;20019;-37
2023/12/18 00:51:37;;;;;;;;;;;12.30;50.90;;;12.51;54.41;102335.03;5057433;28;19947;-36
2023/12/18 00:54:05;;;;;;;;;;;12.40;50.90;;;12.52;54.01;102329.28;5057204;28;19925;-36
2023/12/18 00:56:33;;;;;;;;;;;12.40;50.90;;;12.55;54.40;102336.41;5057165;28;19929;-37
2023/12/18 00:59:01;;;;;;;;;;;12.40;50.90;;;12.55;54.10;102329.75;5054294;28;20011;-36
2023/12/18 01:01:29;;;;;;;;;;;12.40;50.80;;;12.56;53.66;102336.63;5047593;28;19947;-37
2023/12/18 01:03:57;;;;;;;;;;;12.40;50.90;;;12.59;54.03;102349.63;5056172;28;20019;-37
2023/12/18 01:06:25;;;;;;;;;;;12.40;50.70;;;12.57;53.03;102340.97;5054822;28;20019;-37
2023/12/18 01:08:54;;;;;;;;;;;12.40;50.70;;;12.63;53.92;102335.94;5055474;28;19929;-36
2023/12/18 01:11:22;;;;;;;;;;;12.40;50.70;;;12.69;53.76;102335.25;5055249;28;19925;-36
2023/12/18 01:13:50;;;;;;;;;;;12.50;50.70;;;12.69;53.70;102337.75;5054924;28;19935;-37
2023/12/18 01:16:18;;;;;;;;;;;12.50;50.70;;;12.71;53.64;102341.41;5054751;28;19975;-37
2023/12/18 01:18:46;;;;;;;;;;;12.50;50.60;;;12.70;53.34;102334.56;5055355;28;20023;-37
2023/12/18 01:21:15;;;;;;;;;;;12.50;50.50;;;12.73;53.47;102335.00;5054906;28;19924;-37
2023/12/18 01:23:42;;;;;;;;;;;12.50;50.50;;;12.74;53.26;102329.28;5055698;28;19971;-36
2023/12/18 01:26:12;;;;;;;;;;;12.60;50.50;;;12.73;53.71;102324.94;5054662;28;19978;-36
2023/12/18 01:28:41;;;;;;;;;;;12.60;50.50;;;12.78;53.20;102335.69;5055036;28;19924;-37
2023/12/18 01:31:08;;;;;;;;;;;12.60;50.40;;;12.77;53.20;102337.28;5054770;28;20007;-43
2023/12/18 01:33:36;;;;;;;;;;;12.60;50.40;;;12.78;53.37;102334.06;5055122;28;19932;-36
2023/12/18 01:36:05;;;;;;;;;;;12.60;50.40;;;12.78;52.90;102338.19;5054228;28;19979;-36
2023/12/18 01:38:33;;;;;;;;;;;12.60;50.40;;;12.73;53.13;102329.97;5047932;28;19960;-36
2023/12/18 01:41:01;;;;;;;;;;;12.60;50.40;;;12.75;53.17;102333.66;5059336;28;19972;-36
2023/12/18 01:43:30;;;;;;;;;;;12.60;50.40;;;12.73;53.17;102335.00;5059489;28;20016;-36
2023/12/18 01:45:59;;;;;;;;;;;12.50;50.30;;;12.73;53.15;102345.06;5058161;28;19932;-37
2023/12/18 01:48:27;;;;;;;;;;;12.50;50.30;;;12.68;53.32;102340.97;5059254;28;19960;-36
2023/12/18 01:50:56;;;;;;;;;;;12.50;50.30;;;12.70;53.68;102358.81;5057421;28;20451;-36
2023/12/18 01:53:25;;;;;;;;;;;12.50;50.40;;;12.67;53.14;102359.25;5056670;28;19925;-36
2023/12/18 01:55:53;;;;;;;;;;;12.50;50.40;;;12.68;53.55;102361.09;5059581;28;19971;-35
2023/12/18 01:58:20;;;;;;;;;;;12.50;50.40;;;12.67;53.35;102355.81;5047998;28;19925;-36
2023/12/18 02:00:50;;;;;;;;;;;12.50;50.40;;;12.65;53.47;102347.13;5053342;28;19931;-36
2023/12/18 02:03:18;;;;;;;;;;;12.50;50.40;;;12.64;53.47;102351.28;5054333;28;19925;-36
2023/12/18 02:05:46;;;;;;;;;;;12.50;50.40;;;12.62;53.63;102360.16;5053371;28;20362;-36
2023/12/18 02:08:14;;;;;;;;;;;12.50;50.40;;;12.60;54.15;102366.56;5054725;28;20016;-36
2023/12/18 02:10:42;;;;;;;;;;;12.50;50.40;;;12.57;53.66;102361.09;5055385;28;19931;-36
2023/12/18 02:13:10;;;;;;;;;;;12.50;50.40;;;12.58;53.50;102367.03;5054248;28;20007;-36
2023/12/18 02:15:37;;;;;;;;;;;12.40;50.40;;;12.57;53.66;102365.22;5053694;28;19925;-36
2023/12/18 02:18:07;;;;;;;;;;;12.40;50.40;;;12.54;54.26;102364.72;5053930;28;20356;-36
2023/12/18 02:20:35;;;;;;;;;;;12.40;50.50;;;12.53;54.07;102368.84;5045817;28;19924;-35
2023/12/18 02:23:04;;;;;;;;;;;12.40;50.50;;;12.50;53.86;102363.38;5054413;28;19955;-36
2023/12/18 02:25:32;;;;;;;;;;;12.40;50.60;;;12.48;53.99;102369.75;5053458;28;19925;-36
2023/12/18 02:28:00;;;;;;;;;;;12.30;50.60;;;12.47;53.78;102370.44;5053415;28;19967;-37
2023/12/18 02:30:28;;;;;;;;;;;12.30;50.60;;;12.46;53.61;102361.06;5053683;28;20434;-36
2023/12/18 02:32:56;;;;;;;;;;;12.30;50.60;;;12.46;54.34;102364.50;5053363;28;20012;-36
2023/12/18 02:35:24;;;;;;;;;;;12.30;50.70;;;12.43;53.52;102353.09;5053148;28;19929;-36
2023/12/18 02:37:52;;;;;;;;;;;12.30;50.70;;;12.46;53.85;102353.53;5053601;28;19925;-35
2023/12/18 02:40:22;;;;;;;;;;;12.30;50.70;;;12.45;54.54;102349.22;5053325;28;20388;-36
2023/12/18 02:42:50;;;;;;;;;;;12.30;50.70;;;12.46;53.62;102353.53;5053490;28;20462;-36
2023/12/18 02:45:17;;;;;;;;;;;12.30;50.70;;;12.46;54.18;102356.03;5056294;28;19968;-36
2023/12/18 02:47:45;;;;;;;;;;;12.30;50.70;;;12.45;53.43;102354.25;5057935;28;19998;-37
2023/12/18 02:50:14;;;;;;;;;;;12.30;50.70;;;12.41;54.24;102336.84;5061029;28;19935;-36
2023/12/18 02:52:42;;;;;;;;;;;12.30;50.60;;;12.51;53.32;102345.09;5060419;28;20461;-35
2023/12/18 02:55:12;;;;;;;;;;;12.30;50.50;;;12.54;54.17;102347.13;5046967;28;19931;-33
2023/12/18 02:57:41;;;;;;;;;;;12.30;50.50;;;12.57;53.88;102350.13;5046140;28;19931;-37
2023/12/18 03:00:10;;;;;;;;;;;12.40;50.60;;;12.57;53.55;102346.00;5052967;28;19925;-36
2023/12/18 03:02:38;;;;;;;;;;;12.40;50.50;;;12.61;53.59;102347.38;5052969;28;19924;-36
2023/12/18 03:05:06;;;;;;;;;;;12.40;50.40;;;12.64;52.82;102342.81;5052605;28;20379;-33
2023/12/18 03:07:34;;;;;;;;;;;12.40;50.30;;;12.67;53.43;102349.19;5052595;28;20019;-35
2023/12/18 03:10:02;;;;;;;;;;;12.40;50.30;;;12.70;52.45;102353.78;5052744;28;19925;-36
2023/12/18 03:12:30;;;;;;;;;;;12.50;50.30;;;12.70;52.86;102353.78;5052256;28;19929;-36
2023/12/18 03:15:00;;;;;;;;;;;12.50;50.30;;;12.71;53.04;102356.50;5052637;28;19975;-36
2023/12/18 03:17:28;;;;;;;;;;;12.50;50.20;;;12.73;52.92;102357.63;5052002;28;19928;-38
2023/12/18 03:19:57;;;;;;;;;;;12.50;50.10;;;12.73;53.09;102355.13;5052895;28;20312;-36
2023/12/18 03:22:24;;;;;;;;;;;12.50;50.10;;;12.74;52.96;102356.03;5052378;28;20015;-36
2023/12/18 03:24:52;;;;;;;;;;;12.60;50.10;;;12.74;53.57;102362.00;5050417;28;20281;-35
2023/12/18 03:27:20;;;;;;;;;;;12.60;50.10;;;12.75;53.42;102358.78;5051595;28;20445;-36
2023/12/18 03:29:48;;;;;;;;;;;12.50;50.00;;;12.73;52.27;102350.09;5052588;28;19931;-35
2023/12/18 03:32:18;;;;;;;;;;;12.50;50.00;;;12.72;53.33;102343.22;5052394;28;19986;-36
2023/12/18 03:34:46;;;;;;;;;;;12.50;50.00;;;12.72;53.04;102338.19;5052403;28;20376;-37
2023/12/18 03:37:14;;;;;;;;;;;12.50;50.10;;;12.66;53.13;102317.19;5051562;28;19925;-36
2023/12/18 03:39:42;;;;;;;;;;;12.50;50.10;;;12.64;52.74;102318.56;5052209;28;20299;-37
2023/12/18 03:42:10;;;;;;;;;;;12.50;50.10;;;12.68;53.71;102320.84;5052464;28;19978;-37
2023/12/18 03:44:38;;;;;;;;;;;12.50;50.10;;;12.67;53.04;102308.03;5043918;28;20339;-37
2023/12/18 03:47:06;;;;;;;;;;;12.50;50.10;;;12.66;53.29;102311.22;5051503;28;19979;-36
2023/12/18 03:49:35;;;;;;;;;;;12.50;50.10;;;12.65;53.31;102310.31;5052523;28;20292;-36
2023/12/18 03:52:04;;;;;;;;;;;12.50;50.10;;;12.61;53.08;102303.00;5052565;28;19932;-36
2023/12/18 03:54:31;;;;;;;;;;;12.50;50.10;;;12.61;53.62;102312.16;5051851;28;20444;-35
2023/12/18 03:56:59;;;;;;;;;;;12.50;50.10;;;12.58;53.50;102319.25;5050836;28;19932;-36
2023/12/18 03:59:27;;;;;;;;;;;12.40;50.00;;;12.56;53.48;102314.00;5090477;22;20027;-37
2023/12/18 04:01:55;;;;;;;;;;;12.50;50.10;;;12.54;53.64;102300.28;5071835;28;20341;-37
2023/12/18 04:04:23;;;;;;;;;;;12.40;50.10;;;12.53;53.81;102305.97;5071639;28;20470;-37
2023/12/18 04:06:53;;;;;;;;;;;12.40;50.10;;;12.52;53.12;102305.78;5070661;28;19924;-37
2023/12/18 04:09:21;;;;;;;;;;;12.40;50.10;;;12.49;53.71;102306.22;5054038;28;20368;-36
2023/12/18 04:11:49;;;;;;;;;;;12.40;50.20;;;12.47;54.05;102307.59;5051604;28;20372;-36
2023/12/18 04:14:17;;;;;;;;;;;12.40;50.20;;;12.46;53.78;102313.28;5051325;28;20211;-36
2023/12/18 04:16:45;;;;;;;;;;;12.30;50.20;;;12.43;53.81;102326.34;5051037;28;20364;-36
2023/12/18 04:19:13;;;;;;;;;;;12.30;50.20;;;12.43;53.26;102320.41;5051281;28;20414;-37
2023/12/18 04:21:41;;;;;;;;;;;12.30;50.20;;;12.40;52.73;102314.91;5051805;28;20313;-36
2023/12/18 04:24:10;;;;;;;;;;;12.30;50.30;;;12.39;53.37;102313.09;5052831;28;19972;-36
2023/12/18 04:26:38;;;;;;;;;;;12.30;50.30;;;12.39;53.66;102313.97;5054966;28;19972;-37
2023/12/18 04:29:06;;;;;;;;;;;12.30;50.30;;;12.39;53.25;102323.16;5055357;28;19925;-37
2023/12/18 04:31:34;;;;;;;;;;;12.30;50.30;;;12.40;52.77;102324.97;5055423;28;19963;-36
2023/12/18 04:34:02;;;;;;;;;;;12.20;50.20;;;12.39;53.62;102318.13;5055174;28;19928;-36
2023/12/18 04:36:30;;;;;;;;;;;12.20;50.20;;;12.39;52.73;102324.03;5054929;28;19925;-37
2023/12/18 04:38:58;;;;;;;;;;;12.20;50.20;;;12.40;53.83;102322.44;5055521;28;19928;-37
2023/12/18 04:41:27;;;;;;;;;;;12.20;50.20;;;12.40;53.68;102320.84;5055310;28;19960;-37
2023/12/18 04:43:55;;;;;;;;;;;12.30;50.30;;;12.42;53.51;102316.06;5055495;28;20362;-37
2023/12/18 04:46:23;;;;;;;;;;;12.30;50.20;;;12.45;52.72;102325.00;5054488;28;19931;-36
2023/12/18 04:48:51;;;;;;;;;;;12.30;50.20;;;12.48;52.90;102320.41;5055349;28;20378;-36
2023/12/18 04:51:19;;;;;;;;;;;12.30;50.10;;;12.53;53.55;102323.59;5055099;28;20287;-37
2023/12/18 04:53:47;;;;;;;;;;;12.30;50.10;;;12.54;53.28;102317.88;5055450;28;20003;-37
2023/12/18 04:56:15;;;;;;;;;;;12.30;50.00;;;12.57;52.61;102300.75;5054753;28;20024;-37
2023/12/18 04:58:44;;;;;;;;;;;12.30;50.00;;;12.59;53.16;102316.03;5055068;28;19925;-36
2023/12/18 05:01:12;;;;;;;;;;;12.40;50.00;;;12.58;53.21;102317.66;5054837;28;19928;-37
2023/12/18 05:03:40;;;;;;;;;;;12.40;50.00;;;12.60;52.66;102327.91;5054978;28;19929;-37
2023/12/18 05:06:18;;;;;;;;;;;12.40;49.90;;;12.60;52.63;102321.31;5054572;28;19929;-36
2023/12/18 05:08:46;;;;;;;;;;;12.40;49.90;;;12.63;52.57;102321.75;5054868;28;19925;-37
2023/12/18 05:11:14;;;;;;;;;;;12.40;49.80;;;12.65;52.62;102317.84;5054711;28;20019;-37
2023/12/18 05:13:43;;;;;;;;;;;12.50;49.80;;;12.66;51.92;102311.22;5055106;28;20816;-36
2023/12/18 05:16:11;;;;;;;;;;;12.50;49.80;;;12.65;53.25;102317.84;5054048;28;19925;-36
2023/12/18 05:18:39;;;;;;;;;;;12.50;49.80;;;12.66;52.85;102316.25;5054548;28;19925;-37
2023/12/18 05:21:07;;;;;;;;;;;12.50;49.80;;;12.63;52.44;102316.75;5054611;28;19931;-37
2023/12/18 05:23:35;;;;;;;;;;;12.50;49.80;;;12.62;52.60;102311.47;5054531;28;19925;-37
2023/12/18 05:26:03;;;;;;;;;;;12.40;49.70;;;12.62;53.14;102319.94;5053705;28;20019;-36
2023/12/18 05:28:31;;;;;;;;;;;12.40;49.70;;;12.59;52.42;102327.00;5054332;28;20020;-35
2023/12/18 05:31:00;;;;;;;;;;;12.40;49.80;;;12.60;52.66;102330.44;5054543;28;19956;-36
2023/12/18 05:33:28;;;;;;;;;;;12.40;49.80;;;12.58;53.47;102336.88;5054381;28;20016;-35
2023/12/18 05:35:57;;;;;;;;;;;12.40;49.80;;;12.58;52.68;102327.72;5053562;28;19968;-36
2023/12/18 05:38:24;;;;;;;;;;;12.40;49.80;;;12.59;52.48;102334.56;5054071;28;20008;-35
2023/12/18 05:40:52;;;;;;;;;;;12.40;49.80;;;12.58;52.18;102335.28;5054252;28;19925;-35
2023/12/18 05:43:20;;;;;;;;;;;12.40;49.80;;;12.55;52.76;102332.28;5054071;28;20027;-36
2023/12/18 05:45:48;;;;;;;;;;;12.40;49.80;;;12.53;52.76;102333.66;5053483;28;19935;-35
2023/12/18 05:48:17;;;;;;;;;;;12.40;49.80;;;12.52;52.83;102339.34;5054189;28;19925;-35
2023/12/18 05:50:46;;;;;;;;;;;12.40;49.80;;;12.52;53.31;102331.81;5046105;28;19929;-36
2023/12/18 05:53:13;;;;;;;;;;;12.40;49.80;;;12.49;52.84;102331.38;5053955;28;19935;-36
2023/12/18 05:55:41;;;;;;;;;;;12.40;49.80;;;12.47;53.39;102317.66;5053298;28;19924;-36
2023/12/18 05:58:09;;;;;;;;;;;12.30;49.70;;;12.46;52.50;102320.84;5053947;28;19932;-36
2023/12/18 06:00:38;;;;;;;;;;;12.30;49.70;;;12.44;52.81;102322.22;5053895;28;19931;-36
2023/12/18 06:03:06;;;;;;;;;;;12.30;49.80;;;12.42;53.32;102318.56;5053770;28;19924;-36
2023/12/18 06:05:35;;;;;;;;;;;12.30;49.80;;;12.41;52.83;102321.75;5052859;28;19929;-35
2023/12/18 06:08:04;;;;;;;;;;;12.30;49.90;;;12.38;53.00;102321.31;5053669;28;19925;-36
2023/12/18 06:10:32;;;;;;;;;;;12.30;49.90;;;12.34;52.96;102314.00;5053834;28;20023;-35
2023/12/18 06:13:00;;;;;;;;;;;12.20;49.80;;;12.34;52.98;102319.94;5053578;28;20384;-35
2023/12/18 06:15:28;;;;;;;;;;;12.20;49.90;;;12.33;52.54;102322.25;5052955;28;19929;-36
2023/12/18 06:17:56;;;;;;;;;;;12.20;49.90;;;12.32;52.79;102317.91;5053753;28;19929;-35
2023/12/18 06:20:24;;;;;;;;;;;12.20;50.00;;;12.32;52.98;102327.94;5053589;28;20015;-36
2023/12/18 06:22:53;;;;;;;;;;;12.20;49.90;;;12.34;52.83;102334.09;5060157;28;19931;-36
2023/12/18 06:25:21;;;;;;;;;;;12.20;49.90;;;12.34;52.40;102334.09;5057022;28;20017;-35
2023/12/18 06:27:49;;;;;;;;;;;12.30;50.60;;;12.33;52.66;102329.78;5052004;28;19929;-35
2023/12/18 06:30:17;;;;;;;;;;;12.20;49.90;;;12.34;52.96;102324.03;5064632;28;19925;-36
2023/12/18 06:32:45;;;;;;;;;;;12.20;49.90;;;12.34;53.48;102334.09;5053391;28;19924;-36
2023/12/18 06:35:14;;;;;;;;;;;12.20;49.90;;;12.34;53.28;102334.09;5052471;28;19925;-36
2023/12/18 06:37:42;;;;;;;;;;;12.20;49.90;;;12.36;52.36;102342.78;5053200;28;19983;-36
2023/12/18 06:40:12;;;;;;;;;;;12.20;49.90;;;12.38;52.86;102351.50;5052923;28;20381;-36
2023/12/18 06:42:40;;;;;;;;;;;12.20;49.80;;;12.39;53.19;102348.28;5052478;28;19925;-36
2023/12/18 06:45:10;;;;;;;;;;;12.20;49.80;;;12.44;52.33;102347.38;5052368;28;20030;-35
2023/12/18 06:47:37;;;;;;;;;;;12.30;49.80;;;12.48;52.80;102349.66;5052354;28;19929;-35
2023/12/18 06:50:06;;;;;;;;;;;12.30;49.80;;;12.47;52.80;102352.84;5052885;28;19925;-35
2023/12/18 06:52:33;;;;;;;;;;;12.30;49.80;;;12.49;52.46;102356.50;5053111;28;19947;-35
2023/12/18 06:55:01;;;;;;;;;;;12.30;49.70;;;12.51;53.29;102360.19;5052590;28;20024;-36
2023/12/18 06:57:31;;;;;;;;;;;12.30;49.60;;;12.53;52.78;102358.78;5052034;28;19972;-36
2023/12/18 06:59:59;;;;;;;;;;;12.30;49.60;;;12.52;52.43;102354.44;5052649;28;19932;-35
2023/12/18 07:02:27;;;;;;;;;;;12.30;49.60;;;12.52;52.46;102341.88;5052550;28;19924;-36
2023/12/18 07:04:55;;;;;;;;;;;12.30;49.60;;;12.54;53.15;102340.50;5052712;28;19971;-36
2023/12/18 07:07:23;;;;;;;;;;;12.30;49.50;;;12.53;52.75;102343.69;5051952;28;19931;-36
2023/12/18 07:09:51;;;;;;;;;;;12.30;49.50;;;12.55;52.31;102346.44;5052489;28;19931;-36
2023/12/18 07:12:19;;;;;;;;;;;12.30;49.50;;;12.56;53.03;102346.69;5052391;28;19925;-36
2023/12/18 07:14:48;;;;;;;;;;;12.30;49.50;;;12.55;53.26;102342.34;5052293;28;19979;-36
2023/12/18 07:17:16;;;;;;;;;;;12.40;49.60;;;12.53;51.87;102348.72;5051699;28;19925;-36
2023/12/18 07:19:44;;;;;;;;;;;12.30;49.50;;;12.53;52.42;102343.69;5052244;28;20333;-36
2023/12/18 07:22:12;;;;;;;;;;;12.30;49.40;;;12.54;52.67;102343.03;5052401;28;19932;-36
2023/12/18 07:24:40;;;;;;;;;;;12.40;49.50;;;12.56;52.61;102344.16;5052155;28;20370;-36
2023/12/18 07:27:08;;;;;;;;;;;12.40;49.50;;;12.57;52.11;102340.97;5052072;28;20016;-36
2023/12/18 07:29:36;;;;;;;;;;;12.30;49.40;;;12.54;52.18;102348.03;5052054;28;19925;-34
2023/12/18 07:32:06;;;;;;;;;;;12.30;49.40;;;12.54;52.70;102340.50;5052217;28;19924;-36
2023/12/18 07:34:34;;;;;;;;;;;12.30;49.40;;;12.52;52.64;102341.88;5052102;28;20414;-35
2023/12/18 07:37:02;;;;;;;;;;;12.30;49.90;;;12.49;52.33;102342.34;5051597;28;19924;-35
2023/12/18 07:39:31;;;;;;;;;;;12.30;49.30;;;12.49;52.76;102343.94;5051911;28;19935;-36
2023/12/18 07:41:59;;;;;;;;;;;12.30;49.30;;;12.48;52.84;102349.66;5052257;28;20383;-36
2023/12/18 07:44:27;;;;;;;;;;;12.30;49.40;;;12.46;52.30;102335.94;5052024;28;19925;-35
2023/12/18 07:46:55;;;;;;;;;;;12.30;49.40;;;12.44;52.41;102342.34;5051812;28;20007;-36
2023/12/18 07:49:24;;;;;;;;;;;12.30;49.40;;;12.41;52.33;102341.88;5051832;28;20406;-34
2023/12/18 07:51:52;;;;;;;;;;;12.30;49.40;;;12.39;52.33;102339.13;5044273;28;19936;-34
2023/12/18 07:54:20;;;;;;;;;;;12.20;49.40;;;12.38;52.27;102346.47;5053041;28;19925;-36
2023/12/18 07:56:48;;;;;;;;;;;12.20;49.40;;;12.35;52.70;102353.53;5051044;28;19931;-36
2023/12/18 07:59:17;;;;;;;;;;;12.20;49.40;;;12.33;52.26;102347.38;5050625;28;19924;-36
2023/12/18 08:01:45;;;;;;;;;;;12.20;49.50;;;12.31;52.43;102348.75;5051891;28;20352;-36
2023/12/18 08:04:13;;;;;;;;;;;12.20;49.50;;;12.30;53.19;102351.94;5051790;28;19932;-36
2023/12/18 08:06:43;;;;;;;;;;;12.20;49.50;;;12.28;53.06;102350.78;5051390;28;19936;-36
2023/12/18 08:09:11;;;;;;;;;;;12.10;49.50;;;12.27;53.21;102343.91;5052183;28;19928;-36
2023/12/18 08:11:39;;;;;;;;;;;12.10;49.50;;;12.26;52.49;102342.13;5051684;28;19925;-36
2023/12/18 08:14:07;;;;;;;;;;;12.10;49.50;;;12.27;52.47;102351.44;5052007;28;19972;-36
2023/12/18 08:16:35;;;;;;;;;;;12.10;49.50;;;12.27;52.50;102351.44;5051552;28;19932;-36
2023/12/18 08:19:03;;;;;;;;;;;12.10;49.50;;;12.27;53.01;102356.47;5051962;28;19929;-36
2023/12/18 08:21:31;;;;;;;;;;;12.10;49.40;;;12.27;51.94;102341.41;5051939;28;19928;-36
2023/12/18 08:24:01;;;;;;;;;;;12.10;49.40;;;12.28;52.42;102348.25;5052055;28;19925;-36
2023/12/18 08:26:28;;;;;;;;;;;12.10;49.40;;;12.29;52.75;102355.13;5053437;28;20019;-36
2023/12/18 08:28:57;;;;;;;;;;;12.10;49.30;;;12.30;52.68;102351.94;5054567;28;19931;-35
2023/12/18 08:31:25;;;;;;;;;;;12.10;49.30;;;12.31;52.85;102354.69;5052431;28;20392;-36
2023/12/18 08:33:53;;;;;;;;;;;12.20;49.40;;;12.33;52.16;102342.34;5051689;28;19925;-35
2023/12/18 08:36:21;;;;;;;;;;;12.20;49.40;;;12.33;52.12;102332.28;5050858;28;19931;-36
2023/12/18 08:38:49;;;;;;;;;;;12.20;49.30;;;12.35;51.83;102326.78;5051576;28;20294;-36
2023/12/18 08:41:18;;;;;;;;;;;12.20;49.30;;;12.36;52.30;102327.72;5051438;28;19925;-36
2023/12/18 08:43:46;;;;;;;;;;;12.20;49.30;;;12.37;52.09;102325.44;5051327;28;19947;-35
2023/12/18 08:46:29;;;;;;;;;;;12.20;49.20;;;12.38;52.65;102333.91;5050895;28;19928;-36
2023/12/18 08:48:57;;;;;;;;;;;12.20;49.20;;;12.39;51.86;102329.06;5051451;28;19931;-36
2023/12/18 08:51:25;;;;;;;;;;;12.20;49.20;;;12.39;52.50;102333.22;5051514;28;19925;-35
2023/12/18 08:53:54;;;;;;;;;;;12.30;49.20;;;12.44;51.63;102332.28;5051173;28;20343;-36
2023/12/18 08:56:24;;;;;;;;;;;12.30;49.20;;;12.46;52.18;102338.44;5050409;28;20355;-36
2023/12/18 08:58:55;;;;;;;;;;;12.30;49.30;;;12.47;52.39;102332.72;5051196;28;19979;-36
2023/12/18 09:01:23;;;;;;;;;;;12.30;49.20;;;12.48;51.97;102334.56;5051626;28;20348;-36
2023/12/18 09:03:52;;;;;;;;;;;12.30;49.10;;;12.51;51.92;102340.06;5051004;28;20308;-35
2023/12/18 09:06:20;;;;;;;;;;;12.30;49.20;;;12.52;51.92;102321.75;5050469;28;19925;-36
2023/12/18 09:08:48;;;;;;;;;;;12.30;49.10;;;12.53;51.34;102333.66;5051215;28;19925;-36
2023/12/18 09:11:16;;;;;;;;;;;12.30;49.00;;;12.55;52.37;102327.25;5054276;28;19935;-36
2023/12/18 09:13:46;;;;;;;;;;;12.40;49.10;;;12.55;52.42;102332.28;5054935;28;20055;-36
2023/12/18 09:16:13;;;;;;;;;;;12.40;49.10;;;12.57;51.63;102328.41;5054393;28;19931;-36
2023/12/18 09:18:41;;;;;;;;;;;12.40;49.00;;;12.58;52.05;102337.78;5054825;28;20023;-35
2023/12/18 09:21:09;;;;;;;;;;;12.40;49.00;;;12.58;51.71;102330.25;5054906;28;19940;-36
2023/12/18 09:23:37;;;;;;;;;;;12.40;49.00;;;12.57;51.69;102330.91;5054423;28;19928;-36
2023/12/18 09:26:05;;;;;;;;;;;12.40;49.00;;;12.56;52.21;102329.09;5054322;28;20028;-36
2023/12/18 09:28:33;;;;;;;;;;;12.40;49.00;;;12.54;51.90;102320.38;5054369;28;19925;-36
2023/12/18 09:31:05;;;;;;;;;;;12.40;49.10;;;12.53;51.46;102307.59;5054484;28;20020;-36
2023/12/18 09:33:33;;;;;;;;;;;12.40;49.10;;;12.51;52.48;102314.91;5054392;28;19929;-37
2023/12/18 09:36:01;;;;;;;;;;;12.30;49.00;;;12.49;51.47;102317.19;5053657;28;20362;-36
2023/12/18 09:38:29;;;;;;;;;;;12.30;49.00;;;12.47;52.08;102312.63;5054414;28;20015;-37
2023/12/18 09:40:57;;;;;;;;;;;12.30;49.10;;;12.46;51.78;102310.78;5046402;28;19955;-36
2023/12/18 09:43:26;;;;;;;;;;;12.30;49.20;;;12.44;52.11;102307.16;5054629;28;19931;-36
2023/12/18 09:45:54;;;;;;;;;;;12.30;49.20;;;12.41;52.65;102306.69;5053615;28;20011;-37
2023/12/18 09:48:24;;;;;;;;;;;12.30;49.20;;;12.39;52.38;102298.03;5054380;28;20304;-37
2023/12/18 09:50:52;;;;;;;;;;;12.20;49.20;;;12.39;52.16;102298.03;5054056;28;19979;-36
2023/12/18 09:53:21;;;;;;;;;;;12.20;49.20;;;12.37;52.38;102287.72;5054115;28;20277;-36
2023/12/18 09:55:51;;;;;;;;;;;12.20;49.20;;;12.36;52.97;102290.00;5053674;28;19931;-36
2023/12/18 09:58:20;;;;;;;;;;;12.20;49.30;;;12.36;52.70;102297.53;5053990;28;19924;-37
2023/12/18 10:00:48;;;;;;;;;;;12.20;49.30;;;12.35;52.15;102295.72;5053696;28;20460;-37
2023/12/18 10:03:16;;;;;;;;;;;12.20;49.30;;;12.33;52.38;102282.91;5053909;28;19928;-36
2023/12/18 10:05:46;;;;;;;;;;;12.20;49.30;;;12.32;52.77;102286.13;5053319;28;19978;-36
2023/12/18 10:08:15;;;;;;;;;;;12.10;49.20;;;12.31;52.35;102288.41;5053902;28;20450;-37
2023/12/18 10:10:43;;;;;;;;;;;12.10;49.20;;;12.31;51.72;102283.38;5053941;28;19925;-36
2023/12/18 10:13:12;;;;;;;;;;;12.10;49.30;;;12.30;52.24;102281.56;5053962;28;19925;-36
2023/12/18 10:15:42;;;;;;;;;;;12.10;49.30;;;12.30;52.50;102281.56;5053023;28;19925;-36
2023/12/18 10:18:10;;;;;;;;;;;12.10;49.30;;;12.28;52.88;102278.81;5055232;28;20372;-36
2023/12/18 10:20:39;;;;;;;;;;;12.10;49.30;;;12.25;52.25;102267.41;5055331;28;19931;-36
2023/12/18 10:23:08;;;;;;;;;;;12.10;49.30;;;12.29;52.32;102274.69;5054498;28;19971;-36
2023/12/18 10:25:36;;;;;;;;;;;12.10;49.30;;;12.29;52.69;102264.63;5055111;28;20365;-36
2023/12/18 10:28:06;;;;;;;;;;;12.10;49.20;;;12.29;51.56;102265.56;5054475;28;19924;-36
2023/12/18 10:30:34;;;;;;;;;;;12.10;49.20;;;12.28;52.34;102257.78;5054074;28;19925;-36
2023/12/18 10:33:05;;;;;;;;;;;12.10;49.30;;;12.30;52.69;102251.38;5054270;28;19936;-36
2023/12/18 10:35:34;;;;;;;;;;;12.10;49.20;;;12.30;52.54;102246.38;5053032;28;20031;-36
2023/12/18 10:38:02;;;;;;;;;;;12.10;49.20;;;12.32;51.98;102250.03;5045327;28;19947;-37
2023/12/18 10:40:32;;;;;;;;;;;12.20;49.40;;;12.34;52.00;102248.63;5053820;28;20035;-37
2023/12/18 10:43:06;;;;;;;;;;;12.20;49.30;;;12.36;52.17;102239.72;5053689;28;20436;-36
2023/12/18 10:45:34;;;;;;;;;;;12.20;49.30;;;12.41;52.12;102246.34;5053372;28;20016;-37
2023/12/18 10:48:02;;;;;;;;;;;12.20;49.20;;;12.41;52.20;102236.28;5045479;28;19924;-36
2023/12/18 10:50:31;;;;;;;;;;;12.30;49.20;;;12.43;52.14;102237.44;5053280;28;19994;-36
2023/12/18 10:52:59;;;;;;;;;;;12.30;49.20;;;12.45;52.42;102233.56;5052881;28;19925;-36
2023/12/18 10:55:27;;;;;;;;;;;12.30;49.20;;;12.47;51.82;102220.50;5052729;28;19925;-36
2023/12/18 10:57:58;;;;;;;;;;;12.30;49.10;;;12.51;52.39;102218.47;5052744;28;20303;-37
2023/12/18 11:00:27;;;;;;;;;;;12.30;49.10;;;12.52;52.45;102216.16;5053413;28;19924;-36
2023/12/18 11:02:55;;;;;;;;;;;12.30;49.00;;;12.54;51.70;102218.91;5054706;28;20404;-36
2023/12/18 11:05:24;;;;;;;;;;;12.40;49.10;;;12.54;52.26;102206.31;5053976;28;19999;-36
2023/12/18 11:07:52;;;;;;;;;;;12.40;49.10;;;12.56;51.87;102205.88;5054628;28;19935;-36
2023/12/18 11:10:21;;;;;;;;;;;12.40;49.10;;;12.55;52.18;102211.59;5054210;28;19960;-36
2023/12/18 11:12:50;;;;;;;;;;;12.40;49.10;;;12.58;52.17;102209.53;5053641;28;19925;-37
2023/12/18 11:15:23;;;;;;;;;;;12.40;49.10;;;12.61;51.71;102192.38;5052055;28;19970;-34